createdAt,value
2023-03-06T04:01:00.826Z,15.23
2023-03-06T04:03:28.486Z,16.37
2023-03-06T04:05:57.896Z,15.57
2023-03-06T04:08:26.118Z,16.07
2023-03-06T04:10:54.494Z,15.73
2023-03-06T04:13:22.283Z,15.87
2023-03-06T04:15:51.565Z,16.33
2023-03-06T04:18:19.623Z,16.10
2023-03-06T04:20:47.506Z,16.60
2023-03-06T04:23:15.477Z,16.77
2023-03-06T04:25:42.985Z,16.30
2023-03-06T04:28:10.534Z,15.20
2023-03-06T04:30:37.946Z,14.90
2023-03-06T04:33:05.533Z,15.50
2023-03-06T04:35:32.772Z,14.73
2023-03-06T04:37:59.986Z,14.23
2023-03-06T04:40:29.850Z,15.20
2023-03-06T04:42:58.655Z,14.80
2023-03-06T04:45:27.389Z,15.63
2023-03-06T04:47:55.174Z,14.10
2023-03-06T04:50:24.068Z,14.00
2023-03-06T04:52:51.949Z,15.10
2023-03-06T04:55:19.352Z,14.60
2023-03-06T04:57:47.843Z,14.30
2023-03-06T05:00:24.046Z,13.97
2023-03-06T05:02:52.340Z,15.93
2023-03-06T05:05:19.739Z,15.20
2023-03-06T05:07:46.989Z,14.50
2023-03-06T05:10:16.733Z,13.53
2023-03-06T05:12:44.428Z,14.57
2023-03-06T05:15:12.538Z,13.67
2023-03-06T05:17:39.963Z,14.80
2023-03-06T05:20:09.717Z,14.13
2023-03-06T05:22:37.098Z,14.30
2023-03-06T05:25:04.964Z,15.60
2023-03-06T05:27:32.581Z,15.70
2023-03-06T05:29:59.969Z,14.23
2023-03-06T05:32:27.363Z,14.90
2023-03-06T05:34:54.753Z,16.03
2023-03-06T05:37:23.150Z,16.00
2023-03-06T05:39:51.237Z,16.47
2023-03-06T05:42:18.521Z,15.47
2023-03-06T05:44:45.946Z,14.77
2023-03-06T05:47:13.530Z,14.97
2023-03-06T05:49:41.071Z,15.30
2023-03-06T05:52:08.958Z,15.73
2023-03-06T05:54:37.236Z,14.63
2023-03-06T05:57:05.759Z,16.17
2023-03-06T05:59:33.333Z,15.87
2023-03-06T06:02:01.347Z,16.20
2023-03-06T06:04:29.772Z,15.40
2023-03-06T06:06:59.115Z,15.20
2023-03-06T06:09:27.652Z,16.27
2023-03-06T06:11:58.003Z,16.10
2023-03-06T06:14:25.581Z,15.30
2023-03-06T06:16:53.110Z,15.33
2023-03-06T06:19:21.761Z,16.50
2023-03-06T06:21:51.525Z,15.83
2023-03-06T06:24:21.497Z,16.43
2023-03-06T06:26:53.016Z,15.83
2023-03-06T06:29:21.091Z,15.23
2023-03-06T06:31:48.642Z,16.67
2023-03-06T06:34:15.869Z,16.30
2023-03-06T06:36:43.124Z,17.97
2023-03-06T06:39:13.616Z,16.97
2023-03-06T06:41:59.513Z,16.70
2023-03-06T06:44:28.302Z,17.40
2023-03-06T06:49:42.531Z,18.43
2023-03-06T06:52:10.701Z,17.03
2023-03-06T06:54:37.914Z,17.43
2023-03-06T06:57:05.198Z,18.13
2023-03-06T06:59:32.361Z,17.57
2023-03-06T07:01:59.633Z,17.37
2023-03-06T07:04:26.865Z,16.60
2023-03-06T07:06:56.353Z,17.43
2023-03-06T07:09:23.719Z,18.43
2023-03-06T07:11:51.255Z,17.17
2023-03-06T07:14:18.613Z,20.63
2023-03-06T07:16:45.791Z,19.77
2023-03-06T07:19:13.969Z,18.03
2023-03-06T07:21:41.428Z,18.37
2023-03-06T07:24:08.795Z,17.47
2023-03-06T07:26:36.061Z,18.23
2023-03-06T07:29:04.250Z,18.20
2023-03-06T07:31:31.543Z,17.50
2023-03-06T07:33:58.778Z,17.00
2023-03-06T07:36:25.989Z,17.13
2023-03-06T07:38:53.135Z,18.67
2023-03-06T07:41:22.475Z,18.07
2023-03-06T07:43:50.299Z,18.20
2023-03-06T07:46:17.805Z,18.60
2023-03-06T07:48:45.325Z,18.40
2023-03-06T07:51:18.231Z,19.47
2023-03-06T07:53:45.961Z,20.43
2023-03-06T07:56:13.950Z,19.33
2023-03-06T07:58:44.019Z,18.93
2023-03-06T08:01:19.972Z,20.20
2023-03-06T08:03:49.877Z,20.10
2023-03-06T08:06:22.644Z,20.60
2023-03-06T08:08:51.153Z,21.73
2023-03-06T08:11:20.967Z,19.77
2023-03-06T08:13:49.051Z,22.07
2023-03-06T08:16:17.591Z,20.33
2023-03-06T08:18:46.368Z,22.23
2023-03-06T08:21:17.025Z,22.27
2023-03-06T08:23:45.891Z,20.10
2023-03-06T08:26:33.914Z,22.77
2023-03-06T08:29:02.023Z,21.57
2023-03-06T08:31:34.992Z,21.17
2023-03-06T08:34:04.950Z,21.00
2023-03-06T08:36:32.160Z,21.37
2023-03-06T08:38:59.942Z,21.33
2023-03-06T08:41:27.822Z,20.93
2023-03-06T08:43:55.057Z,21.80
2023-03-06T08:46:24.542Z,20.80
2023-03-06T08:48:52.411Z,21.63
2023-03-06T08:51:21.019Z,20.90
2023-03-06T08:53:49.338Z,20.90
2023-03-06T08:56:42.608Z,19.97
2023-03-06T08:59:12.045Z,21.37
2023-03-06T09:01:39.496Z,21.20
2023-03-06T09:04:10.554Z,20.70
2023-03-06T09:06:41.345Z,22.97
2023-03-06T09:09:09.595Z,21.27
2023-03-06T09:11:37.185Z,23.77
2023-03-06T09:14:05.528Z,22.47
2023-03-06T09:16:33.209Z,21.80
2023-03-06T09:19:00.503Z,22.90
2023-03-06T09:21:28.648Z,22.70
2023-03-06T09:23:56.283Z,23.37
2023-03-06T09:26:32.794Z,22.27
2023-03-06T09:29:07.546Z,21.93
2023-03-06T09:31:34.835Z,21.60
2023-03-06T09:34:02.122Z,21.37
2023-03-06T09:36:29.349Z,23.20
2023-03-06T09:38:56.526Z,21.50
2023-03-06T09:41:33.605Z,22.67
2023-03-06T09:44:08.598Z,22.90
2023-03-06T09:46:47.251Z,22.80
2023-03-06T09:49:38.183Z,22.07
2023-03-06T09:53:02.014Z,20.70
2023-03-06T09:55:58.117Z,20.57
2023-03-06T09:58:32.356Z,20.87
2023-03-06T10:01:24.367Z,22.23
2023-03-06T10:04:18.472Z,22.33
2023-03-06T10:06:50.262Z,21.40
2023-03-06T10:09:24.225Z,20.03
2023-03-06T10:12:00.628Z,21.07
2023-03-06T10:14:39.668Z,20.63
2023-03-06T10:17:17.783Z,20.77
2023-03-06T10:19:47.548Z,19.77
2023-03-06T10:22:27.133Z,19.90
2023-03-06T10:25:18.916Z,18.27
2023-03-06T10:28:12.789Z,19.60
2023-03-06T10:30:43.020Z,19.70
2023-03-06T10:33:26.541Z,19.47
2023-03-06T10:35:55.805Z,21.17
2023-03-06T10:38:31.539Z,20.27
2023-03-06T10:41:16.727Z,22.67
2023-03-06T10:44:04.181Z,19.93
2023-03-06T10:46:37.193Z,20.27
2023-03-06T10:49:24.650Z,20.53
2023-03-06T10:52:02.529Z,20.17
2023-03-06T10:54:33.315Z,20.10
2023-03-06T10:57:30.728Z,21.67
2023-03-06T11:00:00.849Z,20.73
2023-03-06T11:02:38.386Z,20.47
2023-03-06T11:05:07.039Z,19.43
2023-03-06T11:07:35.669Z,20.70
2023-03-06T11:10:20.467Z,19.30
2023-03-06T11:13:21.153Z,19.27
2023-03-06T11:15:57.384Z,17.93
2023-03-06T11:18:34.796Z,18.60
2023-03-06T11:21:07.164Z,17.83
2023-03-06T11:23:44.280Z,17.93
2023-03-06T11:26:17.484Z,17.33
2023-03-06T11:29:19.017Z,16.67
2023-03-06T11:31:53.019Z,16.40
2023-03-06T11:34:50.978Z,16.17
2023-03-06T11:37:29.399Z,15.90
2023-03-06T11:40:11.762Z,15.00
2023-03-06T11:43:06.054Z,14.63
2023-03-06T11:45:58.229Z,14.63
2023-03-06T11:48:35.442Z,15.33
2023-03-06T11:51:11.470Z,13.97
2023-03-06T11:53:39.884Z,13.10
2023-03-06T11:56:15.792Z,13.57
2023-03-06T11:59:12.529Z,13.33
2023-03-06T12:01:58.215Z,12.90
2023-03-06T12:04:39.737Z,12.63
2023-03-06T12:07:28.501Z,12.63
2023-03-06T12:10:27.677Z,12.70
2023-03-06T12:16:12.329Z,12.97
2023-03-06T12:18:54.836Z,11.80
2023-03-06T12:21:45.342Z,13.20
2023-03-06T12:25:03.992Z,12.97
2023-03-06T12:27:58.781Z,12.13
2023-03-06T12:31:01.885Z,12.43
2023-03-06T12:33:42.643Z,12.27
2023-03-06T12:36:33.087Z,12.23
2023-03-06T12:39:14.904Z,12.13
2023-03-06T12:41:59.856Z,12.63
2023-03-06T12:44:55.546Z,14.37
2023-03-06T12:47:27.949Z,12.30
2023-03-06T12:49:59.327Z,13.20
2023-03-06T12:52:30.744Z,13.77
2023-03-06T12:55:01.237Z,11.73
2023-03-06T12:57:29.778Z,12.67
2023-03-06T12:59:56.979Z,12.60
2023-03-06T13:02:36.075Z,12.50
2023-03-06T13:05:39.262Z,12.53
2023-03-06T13:08:35.649Z,12.90
2023-03-06T13:11:23.745Z,12.03
2023-03-06T13:13:51.098Z,12.10
2023-03-06T13:16:32.957Z,11.80
2023-03-06T13:19:19.423Z,12.60
2023-03-06T13:21:55.891Z,12.40
2023-03-06T13:24:34.577Z,13.20
2023-03-06T13:27:07.344Z,12.57
2023-03-06T13:29:37.228Z,12.20
2023-03-06T13:32:06.109Z,14.17
2023-03-06T13:34:37.730Z,12.83
2023-03-06T13:37:13.897Z,12.20
2023-03-06T13:39:56.670Z,12.30
2023-03-06T13:42:36.032Z,11.10
2023-03-06T13:45:13.839Z,12.17
2023-03-06T13:48:24.544Z,11.77
2023-03-06T13:50:49.601Z,11.20
2023-03-06T13:53:37.819Z,12.57
2023-03-06T13:56:10.701Z,12.03
2023-03-06T13:59:15.238Z,11.43
2023-03-06T14:02:06.729Z,12.17
2023-03-06T14:04:46.025Z,11.67
2023-03-06T14:07:23.040Z,11.23
2023-03-06T14:10:08.153Z,11.77
2023-03-06T14:12:48.474Z,11.73
2023-03-06T14:15:24.973Z,11.77
2023-03-06T14:18:02.702Z,10.47
2023-03-06T14:20:43.268Z,10.70
2023-03-06T14:23:26.927Z,11.20
2023-03-06T14:26:20.194Z,11.13
2023-03-06T14:28:53.213Z,10.53
2023-03-06T14:31:25.798Z,10.60
2023-03-06T14:33:56.427Z,10.77
2023-03-06T14:36:30.176Z,11.50
2023-03-06T14:39:01.187Z,11.50
2023-03-06T14:41:34.650Z,11.23
2023-03-06T14:44:26.393Z,10.53
2023-03-06T14:47:10.964Z,11.53
2023-03-06T14:49:38.209Z,11.90
2023-03-06T14:52:05.436Z,12.70
2023-03-06T14:54:37.003Z,12.50
2023-03-06T14:57:13.470Z,11.80
2023-03-06T14:59:53.012Z,12.57
2023-03-06T15:02:25.739Z,12.67
2023-03-06T15:05:19.997Z,12.83
2023-03-06T15:07:47.923Z,13.80
2023-03-06T15:10:34.943Z,11.60
2023-03-06T15:13:09.160Z,12.60
2023-03-06T15:15:36.437Z,13.07
2023-03-06T15:18:23.649Z,12.95
2023-03-06T15:20:54.414Z,12.90
2023-03-06T15:23:36.920Z,12.20
2023-03-06T15:26:29.049Z,12.60
2023-03-06T15:29:06.987Z,12.60
2023-03-06T15:31:43.978Z,13.17
2023-03-06T15:34:11.137Z,12.67
2023-03-06T15:36:49.208Z,13.20
2023-03-06T15:39:38.799Z,12.63
2023-03-06T15:42:19.022Z,12.90
2023-03-06T15:44:58.940Z,11.37
2023-03-06T15:47:26.193Z,12.33
2023-03-06T15:49:53.717Z,12.73
2023-03-06T15:52:22.031Z,12.70
2023-03-06T15:54:49.640Z,12.27
2023-03-06T15:57:22.186Z,13.20
2023-03-06T15:59:50.145Z,14.20
2023-03-06T16:02:19.737Z,12.83
2023-03-06T16:04:47.093Z,13.30
2023-03-06T16:07:15.129Z,12.63
2023-03-06T16:09:43.305Z,13.47
2023-03-06T16:12:19.486Z,12.43
2023-03-06T16:14:47.821Z,12.83
2023-03-06T16:17:15.541Z,13.10
2023-03-06T16:19:43.301Z,12.27
2023-03-06T16:22:10.816Z,13.10
2023-03-06T16:24:38.038Z,12.33
2023-03-06T16:27:06.866Z,12.67
2023-03-06T16:29:35.117Z,13.80
2023-03-06T16:32:03.199Z,14.23
2023-03-06T16:34:30.460Z,12.40
2023-03-06T16:36:58.081Z,12.33
2023-03-06T16:39:25.313Z,12.20
2023-03-06T16:41:52.683Z,12.73
2023-03-06T16:44:20.580Z,12.27
2023-03-06T16:46:49.974Z,12.60
2023-03-06T16:49:23.003Z,12.40
2023-03-06T16:51:51.362Z,13.40
2023-03-06T16:54:19.050Z,12.27
2023-03-06T16:56:46.557Z,12.57
2023-03-06T16:59:13.822Z,11.70
2023-03-06T17:01:43.096Z,12.30
2023-03-06T17:04:10.901Z,12.47
2023-03-06T17:06:39.182Z,11.47
2023-03-06T17:09:06.917Z,12.23
2023-03-06T17:11:38.466Z,11.40
2023-03-06T17:14:06.829Z,12.10
2023-03-06T17:16:37.046Z,12.40
2023-03-06T17:19:04.261Z,11.93
2023-03-06T17:21:31.494Z,12.50
2023-03-06T17:24:01.569Z,12.67
2023-03-06T17:26:28.762Z,12.07
2023-03-06T17:28:56.182Z,14.30
2023-03-06T17:31:27.926Z,18.83
2023-03-06T17:33:59.112Z,18.53
2023-03-06T17:36:28.015Z,14.77
2023-03-06T17:38:57.023Z,12.03
2023-03-06T17:41:24.816Z,12.00
2023-03-06T17:43:54.581Z,12.67
2023-03-06T17:46:22.101Z,11.47
2023-03-06T17:48:49.466Z,11.87
2023-03-06T17:51:16.705Z,12.10
2023-03-06T17:53:43.921Z,15.57
2023-03-06T17:56:13.494Z,12.17
2023-03-06T17:58:40.814Z,11.60
2023-03-06T18:01:28.446Z,12.30
2023-03-06T18:03:56.314Z,12.07
2023-03-06T18:06:24.811Z,11.67
2023-03-06T18:08:53.051Z,11.03
2023-03-06T18:11:20.997Z,12.20
2023-03-06T18:13:48.942Z,11.67
2023-03-06T18:16:18.989Z,12.00
2023-03-06T18:18:46.886Z,11.70
2023-03-06T18:21:16.131Z,11.13
2023-03-06T18:23:43.473Z,12.13
2023-03-06T18:26:12.258Z,12.80
2023-03-06T18:28:42.518Z,12.13
2023-03-06T18:31:26.185Z,11.83
2023-03-06T18:33:56.014Z,12.40
2023-03-06T18:36:25.495Z,12.17
2023-03-06T18:38:52.836Z,12.77
2023-03-06T18:41:20.838Z,13.23
2023-03-06T18:43:55.659Z,13.37
2023-03-06T18:46:23.801Z,13.27
2023-03-06T18:48:51.033Z,13.53
2023-03-06T18:51:19.358Z,12.40
2023-03-06T18:53:46.996Z,13.20
2023-03-06T18:56:19.800Z,13.33
2023-03-06T18:58:48.193Z,14.87
2023-03-06T19:01:15.440Z,13.23
2023-03-06T19:03:43.375Z,12.77
2023-03-06T19:06:13.392Z,17.97
2023-03-06T19:08:41.239Z,19.03
2023-03-06T19:11:14.293Z,20.27
2023-03-06T19:13:41.745Z,16.90
2023-03-06T19:16:09.702Z,15.77
2023-03-06T19:18:36.973Z,14.77
2023-03-06T19:21:19.009Z,14.90
2023-03-06T19:23:46.664Z,16.67
2023-03-06T19:26:14.415Z,14.20
2023-03-06T19:28:42.874Z,14.83
2023-03-06T19:31:14.197Z,14.57
2023-03-06T19:33:42.659Z,13.73
2023-03-06T19:36:12.550Z,13.50
2023-03-06T19:38:40.092Z,14.43
2023-03-06T19:41:13.281Z,14.83
2023-03-06T19:43:41.779Z,14.00
2023-03-06T19:46:15.501Z,13.93
2023-03-06T19:48:43.285Z,13.50
2023-03-06T19:51:10.633Z,15.23
2023-03-06T19:53:38.863Z,13.93
2023-03-06T19:56:13.410Z,15.00
2023-03-06T19:58:40.708Z,13.97
2023-03-06T20:01:11.202Z,15.17
2023-03-06T20:03:38.905Z,14.93
2023-03-06T20:06:09.109Z,15.20
2023-03-06T20:08:37.160Z,15.37
2023-03-06T20:11:04.856Z,15.07
2023-03-06T20:13:32.038Z,14.70
2023-03-06T20:16:02.912Z,15.33
2023-03-06T20:18:30.265Z,15.87
2023-03-06T20:21:01.795Z,14.83
2023-03-06T20:23:30.130Z,13.63
2023-03-06T20:26:05.927Z,14.83
2023-03-06T20:28:33.852Z,15.23
2023-03-06T20:31:09.693Z,14.93
2023-03-06T20:33:37.084Z,14.60
2023-03-06T20:36:04.632Z,13.53
2023-03-06T20:38:31.832Z,13.53
2023-03-06T20:40:59.723Z,13.70
2023-03-06T20:43:26.934Z,13.47
2023-03-06T20:46:02.495Z,12.60
2023-03-06T20:48:30.256Z,12.30
2023-03-06T20:51:20.581Z,12.87
2023-03-06T20:53:49.521Z,12.80
2023-03-06T20:56:19.280Z,14.00
2023-03-06T20:58:46.626Z,13.73
2023-03-06T21:01:25.557Z,12.63
2023-03-06T21:03:53.665Z,12.90
2023-03-06T21:06:21.160Z,12.10
2023-03-06T21:08:48.578Z,11.70
2023-03-06T21:11:16.710Z,12.17
2023-03-06T21:13:44.199Z,12.20
2023-03-06T21:16:14.408Z,12.60
2023-03-06T21:18:42.026Z,11.87
2023-03-06T21:21:14.661Z,11.90
2023-03-06T21:23:42.201Z,11.60
2023-03-06T21:26:17.709Z,11.73
2023-03-06T21:28:45.402Z,12.10
2023-03-06T21:31:14.270Z,11.67
2023-03-06T21:33:42.033Z,12.13
2023-03-06T21:36:09.904Z,12.50
2023-03-06T21:38:37.544Z,11.70
2023-03-06T21:41:10.463Z,11.57
2023-03-06T21:43:37.819Z,10.73
2023-03-06T21:46:05.456Z,10.97
2023-03-06T21:48:32.951Z,11.83
2023-03-06T21:51:11.805Z,12.50
2023-03-06T21:53:42.101Z,11.20
2023-03-06T21:56:10.435Z,11.53
2023-03-06T21:58:37.823Z,11.73
